sensor_id;sensor_type;location;lat;lon;timestamp;P1;durP1;ratioP1;P2;durP2;ratioP2
72388;SDS011;60566;48.062;9.930;2024-03-23T00:55:55;7.03;;;3.45;;
72388;SDS011;60566;48.062;9.930;2024-03-23T00:58:21;4.78;;;3.00;;
72388;SDS011;60566;48.062;9.930;2024-03-23T01:00:47;6.15;;;3.30;;
72388;SDS011;60566;48.062;9.930;2024-03-23T01:03:12;5.50;;;3.15;;
72388;SDS011;60566;48.062;9.930;2024-03-23T01:05:38;4.50;;;2.47;;
72388;SDS011;60566;48.062;9.930;2024-03-23T01:08:05;5.18;;;3.00;;
72388;SDS011;60566;48.062;9.930;2024-03-23T01:10:31;5.05;;;3.25;;
72388;SDS011;60566;48.062;9.930;2024-03-23T01:12:57;4.90;;;3.22;;
72388;SDS011;60566;48.062;9.930;2024-03-23T01:15:23;5.00;;;2.83;;
72388;SDS011;60566;48.062;9.930;2024-03-23T01:17:48;6.22;;;3.00;;
72388;SDS011;60566;48.062;9.930;2024-03-23T01:20:14;4.57;;;3.03;;
72388;SDS011;60566;48.062;9.930;2024-03-23T01:22:40;7.70;;;3.10;;
72388;SDS011;60566;48.062;9.930;2024-03-23T01:25:07;7.15;;;3.00;;
72388;SDS011;60566;48.062;9.930;2024-03-23T01:27:33;4.85;;;3.42;;
72388;SDS011;60566;48.062;9.930;2024-03-23T01:29:59;5.95;;;3.72;;
72388;SDS011;60566;48.062;9.930;2024-03-23T01:32:25;4.32;;;3.10;;
72388;SDS011;60566;48.062;9.930;2024-03-23T01:34:50;6.72;;;4.07;;
72388;SDS011;60566;48.062;9.930;2024-03-23T01:37:16;6.72;;;3.20;;
72388;SDS011;60566;48.062;9.930;2024-03-23T01:39:42;6.10;;;3.17;;
72388;SDS011;60566;48.062;9.930;2024-03-23T01:42:09;4.55;;;3.22;;
72388;SDS011;60566;48.062;9.930;2024-03-23T01:44:35;5.13;;;3.42;;
72388;SDS011;60566;48.062;9.930;2024-03-23T01:47:00;4.97;;;3.30;;
72388;SDS011;60566;48.062;9.930;2024-03-23T01:49:26;5.25;;;3.70;;
72388;SDS011;60566;48.062;9.930;2024-03-23T01:51:52;6.45;;;3.35;;
72388;SDS011;60566;48.062;9.930;2024-03-23T01:54:18;6.03;;;3.45;;
72388;SDS011;60566;48.062;9.930;2024-03-23T01:56:44;5.78;;;3.40;;
72388;SDS011;60566;48.062;9.930;2024-03-23T01:59:11;7.30;;;3.85;;
72388;SDS011;60566;48.062;9.930;2024-03-23T02:01:36;7.07;;;3.42;;
72388;SDS011;60566;48.062;9.930;2024-03-23T02:04:02;6.50;;;3.25;;
72388;SDS011;60566;48.062;9.930;2024-03-23T02:06:28;5.35;;;3.30;;
72388;SDS011;60566;48.062;9.930;2024-03-23T02:08:54;6.63;;;4.05;;
72388;SDS011;60566;48.062;9.930;2024-03-23T02:11:20;5.90;;;3.20;;
72388;SDS011;60566;48.062;9.930;2024-03-23T02:13:46;6.60;;;3.22;;
72388;SDS011;60566;48.062;9.930;2024-03-23T02:16:13;6.35;;;3.00;;
72388;SDS011;60566;48.062;9.930;2024-03-23T02:18:39;6.00;;;3.10;;
72388;SDS011;60566;48.062;9.930;2024-03-23T02:21:04;6.85;;;3.20;;
72388;SDS011;60566;48.062;9.930;2024-03-23T02:23:32;4.63;;;2.95;;
72388;SDS011;60566;48.062;9.930;2024-03-23T02:25:57;6.35;;;3.00;;
72388;SDS011;60566;48.062;9.930;2024-03-23T02:28:23;9.68;;;3.42;;
72388;SDS011;60566;48.062;9.930;2024-03-23T02:30:49;4.70;;;3.33;;
72388;SDS011;60566;48.062;9.930;2024-03-23T02:33:15;5.57;;;2.95;;
72388;SDS011;60566;48.062;9.930;2024-03-23T02:35:40;6.38;;;3.10;;
72388;SDS011;60566;48.062;9.930;2024-03-23T02:38:06;6.35;;;3.13;;
72388;SDS011;60566;48.062;9.930;2024-03-23T02:40:33;5.35;;;3.13;;
72388;SDS011;60566;48.062;9.930;2024-03-23T02:42:59;5.15;;;3.10;;
72388;SDS011;60566;48.062;9.930;2024-03-23T02:45:25;5.47;;;3.30;;
72388;SDS011;60566;48.062;9.930;2024-03-23T02:47:50;5.20;;;3.13;;
72388;SDS011;60566;48.062;9.930;2024-03-23T02:50:19;6.53;;;3.03;;
72388;SDS011;60566;48.062;9.930;2024-03-23T02:52:45;5.95;;;3.17;;
72388;SDS011;60566;48.062;9.930;2024-03-23T02:55:11;7.15;;;3.22;;
72388;SDS011;60566;48.062;9.930;2024-03-23T02:57:38;6.40;;;3.40;;
72388;SDS011;60566;48.062;9.930;2024-03-23T03:00:05;5.97;;;3.13;;
72388;SDS011;60566;48.062;9.930;2024-03-23T03:02:32;5.13;;;3.08;;
72388;SDS011;60566;48.062;9.930;2024-03-23T03:04:58;7.50;;;3.20;;
72388;SDS011;60566;48.062;9.930;2024-03-23T03:07:24;5.25;;;2.97;;
72388;SDS011;60566;48.062;9.930;2024-03-23T03:09:50;4.88;;;3.15;;
72388;SDS011;60566;48.062;9.930;2024-03-23T03:12:15;6.15;;;3.17;;
72388;SDS011;60566;48.062;9.930;2024-03-23T03:14:43;6.60;;;3.20;;
72388;SDS011;60566;48.062;9.930;2024-03-23T03:17:08;6.50;;;3.22;;
72388;SDS011;60566;48.062;9.930;2024-03-23T03:19:34;5.90;;;3.00;;
72388;SDS011;60566;48.062;9.930;2024-03-23T03:22:00;8.32;;;2.95;;
72388;SDS011;60566;48.062;9.930;2024-03-23T03:24:26;5.53;;;3.55;;
72388;SDS011;60566;48.062;9.930;2024-03-23T03:26:52;5.90;;;3.42;;
72388;SDS011;60566;48.062;9.930;2024-03-23T03:29:17;4.75;;;3.28;;
72388;SDS011;60566;48.062;9.930;2024-03-23T03:31:45;5.47;;;3.28;;
72388;SDS011;60566;48.062;9.930;2024-03-23T03:34:10;4.78;;;3.20;;
72388;SDS011;60566;48.062;9.930;2024-03-23T03:36:36;5.93;;;3.20;;
72388;SDS011;60566;48.062;9.930;2024-03-23T03:39:02;4.50;;;3.03;;
72388;SDS011;60566;48.062;9.930;2024-03-23T03:41:29;6.25;;;3.25;;
72388;SDS011;60566;48.062;9.930;2024-03-23T03:43:54;6.80;;;3.88;;
72388;SDS011;60566;48.062;9.930;2024-03-23T03:46:20;5.82;;;3.10;;
72388;SDS011;60566;48.062;9.930;2024-03-23T03:48:47;5.63;;;2.70;;
72388;SDS011;60566;48.062;9.930;2024-03-23T03:51:13;7.30;;;3.00;;
72388;SDS011;60566;48.062;9.930;2024-03-23T03:53:39;5.78;;;3.10;;
72388;SDS011;60566;48.062;9.930;2024-03-23T03:56:05;4.47;;;2.95;;
72388;SDS011;60566;48.062;9.930;2024-03-23T03:58:31;4.15;;;2.75;;
72388;SDS011;60566;48.062;9.930;2024-03-23T04:00:56;4.53;;;3.05;;
72388;SDS011;60566;48.062;9.930;2024-03-23T04:03:22;6.65;;;3.30;;
72388;SDS011;60566;48.062;9.930;2024-03-23T04:05:51;5.43;;;3.20;;
72388;SDS011;60566;48.062;9.930;2024-03-23T04:08:17;5.05;;;3.10;;
72388;SDS011;60566;48.062;9.930;2024-03-23T04:10:43;5.32;;;3.50;;
72388;SDS011;60566;48.062;9.930;2024-03-23T04:13:08;4.85;;;2.92;;
72388;SDS011;60566;48.062;9.930;2024-03-23T04:15:34;6.13;;;3.05;;
72388;SDS011;60566;48.062;9.930;2024-03-23T04:17:59;5.68;;;3.38;;
72388;SDS011;60566;48.062;9.930;2024-03-23T04:20:25;5.60;;;3.10;;
72388;SDS011;60566;48.062;9.930;2024-03-23T04:22:52;7.05;;;3.25;;
72388;SDS011;60566;48.062;9.930;2024-03-23T04:25:19;5.20;;;3.63;;
72388;SDS011;60566;48.062;9.930;2024-03-23T04:27:44;7.03;;;3.13;;
72388;SDS011;60566;48.062;9.930;2024-03-23T04:30:11;4.93;;;3.22;;
72388;SDS011;60566;48.062;9.930;2024-03-23T04:32:37;4.90;;;2.90;;
72388;SDS011;60566;48.062;9.930;2024-03-23T04:35:03;6.70;;;3.03;;
72388;SDS011;60566;48.062;9.930;2024-03-23T04:37:34;4.80;;;3.28;;
72388;SDS011;60566;48.062;9.930;2024-03-23T04:40:02;5.60;;;3.33;;
72388;SDS011;60566;48.062;9.930;2024-03-23T04:42:31;5.43;;;3.20;;
72388;SDS011;60566;48.062;9.930;2024-03-23T04:44:56;4.88;;;2.63;;
72388;SDS011;60566;48.062;9.930;2024-03-23T04:47:22;5.95;;;3.50;;
72388;SDS011;60566;48.062;9.930;2024-03-23T04:49:48;6.57;;;3.15;;
72388;SDS011;60566;48.062;9.930;2024-03-23T04:52:15;5.38;;;3.17;;
72388;SDS011;60566;48.062;9.930;2024-03-23T04:54:41;5.25;;;3.15;;
72388;SDS011;60566;48.062;9.930;2024-03-23T04:57:09;6.28;;;3.65;;
72388;SDS011;60566;48.062;9.930;2024-03-23T04:59:34;6.72;;;3.65;;
72388;SDS011;60566;48.062;9.930;2024-03-23T05:02:00;5.47;;;3.25;;
72388;SDS011;60566;48.062;9.930;2024-03-23T05:04:26;5.57;;;2.90;;
72388;SDS011;60566;48.062;9.930;2024-03-23T05:06:51;5.25;;;3.20;;
72388;SDS011;60566;48.062;9.930;2024-03-23T05:09:17;5.53;;;2.95;;
72388;SDS011;60566;48.062;9.930;2024-03-23T05:11:43;5.22;;;2.92;;
72388;SDS011;60566;48.062;9.930;2024-03-23T05:14:10;4.40;;;2.70;;
72388;SDS011;60566;48.062;9.930;2024-03-23T05:16:37;5.07;;;3.22;;
72388;SDS011;60566;48.062;9.930;2024-03-23T05:19:02;4.88;;;3.35;;
72388;SDS011;60566;48.062;9.930;2024-03-23T05:21:28;7.95;;;3.00;;
72388;SDS011;60566;48.062;9.930;2024-03-23T05:23:54;4.72;;;3.17;;
72388;SDS011;60566;48.062;9.930;2024-03-23T05:26:20;5.00;;;2.95;;
72388;SDS011;60566;48.062;9.930;2024-03-23T05:28:45;5.10;;;2.80;;
72388;SDS011;60566;48.062;9.930;2024-03-23T05:31:12;4.40;;;2.60;;
72388;SDS011;60566;48.062;9.930;2024-03-23T05:33:38;6.55;;;2.95;;
72388;SDS011;60566;48.062;9.930;2024-03-23T05:36:04;5.55;;;2.88;;
72388;SDS011;60566;48.062;9.930;2024-03-23T05:38:30;5.47;;;2.95;;
72388;SDS011;60566;48.062;9.930;2024-03-23T05:40:56;6.20;;;2.95;;
72388;SDS011;60566;48.062;9.930;2024-03-23T05:43:22;8.73;;;3.20;;
72388;SDS011;60566;48.062;9.930;2024-03-23T05:45:52;5.28;;;3.30;;
72388;SDS011;60566;48.062;9.930;2024-03-23T05:48:20;4.53;;;2.75;;
72388;SDS011;60566;48.062;9.930;2024-03-23T05:50:45;6.75;;;3.28;;
72388;SDS011;60566;48.062;9.930;2024-03-23T05:53:11;5.10;;;2.80;;
72388;SDS011;60566;48.062;9.930;2024-03-23T05:55:38;5.60;;;3.05;;
72388;SDS011;60566;48.062;9.930;2024-03-23T05:58:04;5.65;;;2.78;;
72388;SDS011;60566;48.062;9.930;2024-03-23T06:00:29;7.05;;;3.05;;
72388;SDS011;60566;48.062;9.930;2024-03-23T06:02:55;6.22;;;2.70;;
72388;SDS011;60566;48.062;9.930;2024-03-23T06:05:22;5.63;;;2.78;;
72388;SDS011;60566;48.062;9.930;2024-03-23T06:10:15;4.93;;;2.90;;
72388;SDS011;60566;48.062;9.930;2024-03-23T06:12:41;11.38;;;3.33;;
72388;SDS011;60566;48.062;9.930;2024-03-23T06:15:07;8.98;;;3.20;;
72388;SDS011;60566;48.062;9.930;2024-03-23T06:17:35;8.05;;;3.42;;
72388;SDS011;60566;48.062;9.930;2024-03-23T06:20:01;6.05;;;3.40;;
72388;SDS011;60566;48.062;9.930;2024-03-23T06:22:28;5.88;;;3.58;;
72388;SDS011;60566;48.062;9.930;2024-03-23T06:24:53;6.07;;;3.40;;
72388;SDS011;60566;48.062;9.930;2024-03-23T06:27:19;7.07;;;3.55;;
72388;SDS011;60566;48.062;9.930;2024-03-23T06:29:45;5.20;;;3.13;;
72388;SDS011;60566;48.062;9.930;2024-03-23T06:32:11;5.82;;;2.90;;
72388;SDS011;60566;48.062;9.930;2024-03-23T06:34:36;5.88;;;3.35;;
72388;SDS011;60566;48.062;9.930;2024-03-23T06:37:02;4.85;;;3.20;;
72388;SDS011;60566;48.062;9.930;2024-03-23T06:39:29;6.65;;;3.22;;
72388;SDS011;60566;48.062;9.930;2024-03-23T06:41:55;5.40;;;3.55;;
72388;SDS011;60566;48.062;9.930;2024-03-23T06:44:22;8.00;;;3.97;;
72388;SDS011;60566;48.062;9.930;2024-03-23T06:46:47;5.22;;;3.35;;
72388;SDS011;60566;48.062;9.930;2024-03-23T06:49:14;4.53;;;2.60;;
72388;SDS011;60566;48.062;9.930;2024-03-23T06:51:40;8.43;;;3.42;;
72388;SDS011;60566;48.062;9.930;2024-03-23T06:54:06;6.53;;;3.20;;
72388;SDS011;60566;48.062;9.930;2024-03-23T06:56:33;5.20;;;3.10;;
72388;SDS011;60566;48.062;9.930;2024-03-23T06:58:59;4.80;;;3.17;;
72388;SDS011;60566;48.062;9.930;2024-03-23T07:01:24;7.53;;;3.17;;
72388;SDS011;60566;48.062;9.930;2024-03-23T07:03:50;4.93;;;3.20;;
72388;SDS011;60566;48.062;9.930;2024-03-23T07:06:16;7.55;;;3.47;;
72388;SDS011;60566;48.062;9.930;2024-03-23T07:08:41;4.93;;;3.00;;
72388;SDS011;60566;48.062;9.930;2024-03-23T07:11:07;4.78;;;3.10;;
72388;SDS011;60566;48.062;9.930;2024-03-23T07:13:34;5.07;;;3.58;;
72388;SDS011;60566;48.062;9.930;2024-03-23T07:15:59;5.40;;;3.30;;
72388;SDS011;60566;48.062;9.930;2024-03-23T07:18:25;5.60;;;3.15;;
72388;SDS011;60566;48.062;9.930;2024-03-23T07:20:54;6.90;;;3.85;;
72388;SDS011;60566;48.062;9.930;2024-03-23T07:23:20;6.18;;;3.70;;
72388;SDS011;60566;48.062;9.930;2024-03-23T07:25:55;4.97;;;3.20;;
72388;SDS011;60566;48.062;9.930;2024-03-23T07:28:21;6.85;;;3.80;;
72388;SDS011;60566;48.062;9.930;2024-03-23T07:30:48;6.70;;;3.45;;
72388;SDS011;60566;48.062;9.930;2024-03-23T07:33:26;6.63;;;3.88;;
72388;SDS011;60566;48.062;9.930;2024-03-23T07:35:52;5.30;;;3.45;;
72388;SDS011;60566;48.062;9.930;2024-03-23T07:38:18;5.10;;;3.33;;
72388;SDS011;60566;48.062;9.930;2024-03-23T07:40:44;5.68;;;4.10;;
72388;SDS011;60566;48.062;9.930;2024-03-23T07:43:09;5.47;;;3.50;;
72388;SDS011;60566;48.062;9.930;2024-03-23T07:45:35;5.80;;;4.03;;
72388;SDS011;60566;48.062;9.930;2024-03-23T07:48:04;6.60;;;4.40;;
72388;SDS011;60566;48.062;9.930;2024-03-23T07:50:30;6.20;;;3.90;;
72388;SDS011;60566;48.062;9.930;2024-03-23T07:52:56;7.80;;;4.32;;
72388;SDS011;60566;48.062;9.930;2024-03-23T07:55:21;6.50;;;3.65;;
72388;SDS011;60566;48.062;9.930;2024-03-23T07:57:47;5.68;;;3.65;;
72388;SDS011;60566;48.062;9.930;2024-03-23T08:00:13;5.45;;;3.60;;
72388;SDS011;60566;48.062;9.930;2024-03-23T08:02:39;6.65;;;4.07;;
72388;SDS011;60566;48.062;9.930;2024-03-23T08:05:06;6.00;;;3.63;;
72388;SDS011;60566;48.062;9.930;2024-03-23T08:07:33;6.88;;;3.85;;
72388;SDS011;60566;48.062;9.930;2024-03-23T08:09:58;7.68;;;3.95;;
72388;SDS011;60566;48.062;9.930;2024-03-23T08:12:25;7.18;;;3.95;;
72388;SDS011;60566;48.062;9.930;2024-03-23T08:14:51;7.43;;;4.03;;
72388;SDS011;60566;48.062;9.930;2024-03-23T08:17:16;8.07;;;4.75;;
72388;SDS011;60566;48.062;9.930;2024-03-23T08:19:42;7.07;;;3.90;;
72388;SDS011;60566;48.062;9.930;2024-03-23T08:22:09;9.20;;;4.65;;
72388;SDS011;60566;48.062;9.930;2024-03-23T08:24:35;7.85;;;4.35;;
72388;SDS011;60566;48.062;9.930;2024-03-23T08:27:01;5.15;;;2.63;;
72388;SDS011;60566;48.062;9.930;2024-03-23T08:29:29;4.45;;;2.25;;
72388;SDS011;60566;48.062;9.930;2024-03-23T08:31:54;3.55;;;2.10;;
72388;SDS011;60566;48.062;9.930;2024-03-23T08:34:20;4.68;;;2.50;;
72388;SDS011;60566;48.062;9.930;2024-03-23T08:36:46;4.78;;;1.80;;
72388;SDS011;60566;48.062;9.930;2024-03-23T08:39:12;3.63;;;2.50;;
72388;SDS011;60566;48.062;9.930;2024-03-23T08:41:38;3.50;;;2.13;;
72388;SDS011;60566;48.062;9.930;2024-03-23T08:44:04;2.92;;;1.50;;
72388;SDS011;60566;48.062;9.930;2024-03-23T08:46:30;2.60;;;1.58;;
72388;SDS011;60566;48.062;9.930;2024-03-23T08:48:55;2.50;;;1.30;;
72388;SDS011;60566;48.062;9.930;2024-03-23T08:51:21;2.50;;;1.45;;
72388;SDS011;60566;48.062;9.930;2024-03-23T08:53:46;2.85;;;1.67;;
72388;SDS011;60566;48.062;9.930;2024-03-23T08:56:13;2.08;;;1.20;;
72388;SDS011;60566;48.062;9.930;2024-03-23T08:58:39;1.45;;;1.10;;
72388;SDS011;60566;48.062;9.930;2024-03-23T09:01:06;2.42;;;1.20;;
72388;SDS011;60566;48.062;9.930;2024-03-23T09:03:32;1.92;;;1.33;;
72388;SDS011;60566;48.062;9.930;2024-03-23T09:05:57;1.30;;;1.10;;
72388;SDS011;60566;48.062;9.930;2024-03-23T09:08:24;2.47;;;1.15;;
72388;SDS011;60566;48.062;9.930;2024-03-23T09:10:51;1.63;;;1.02;;
72388;SDS011;60566;48.062;9.930;2024-03-23T09:13:18;1.63;;;1.10;;
72388;SDS011;60566;48.062;9.930;2024-03-23T09:15:47;1.83;;;1.17;;
72388;SDS011;60566;48.062;9.930;2024-03-23T09:18:14;2.60;;;1.17;;
72388;SDS011;60566;48.062;9.930;2024-03-23T09:20:39;1.83;;;1.15;;
72388;SDS011;60566;48.062;9.930;2024-03-23T09:23:05;1.80;;;1.20;;
72388;SDS011;60566;48.062;9.930;2024-03-23T09:25:31;1.83;;;1.27;;
72388;SDS011;60566;48.062;9.930;2024-03-23T09:27:57;2.35;;;1.52;;
72388;SDS011;60566;48.062;9.930;2024-03-23T09:30:24;4.60;;;1.30;;
72388;SDS011;60566;48.062;9.930;2024-03-23T09:32:50;3.50;;;1.88;;
72388;SDS011;60566;48.062;9.930;2024-03-23T09:35:16;3.70;;;1.90;;
72388;SDS011;60566;48.062;9.930;2024-03-23T09:37:41;2.55;;;1.92;;
72388;SDS011;60566;48.062;9.930;2024-03-23T09:40:08;3.28;;;1.90;;
72388;SDS011;60566;48.062;9.930;2024-03-23T09:42:35;5.28;;;1.70;;
72388;SDS011;60566;48.062;9.930;2024-03-23T09:45:00;3.38;;;1.85;;
72388;SDS011;60566;48.062;9.930;2024-03-23T09:47:28;3.05;;;1.80;;
72388;SDS011;60566;48.062;9.930;2024-03-23T09:49:54;2.80;;;1.70;;
72388;SDS011;60566;48.062;9.930;2024-03-23T09:52:20;4.63;;;1.92;;
72388;SDS011;60566;48.062;9.930;2024-03-23T09:54:45;2.65;;;1.67;;
72388;SDS011;60566;48.062;9.930;2024-03-23T09:57:11;4.30;;;1.63;;
72388;SDS011;60566;48.062;9.930;2024-03-23T09:59:37;3.58;;;1.77;;
72388;SDS011;60566;48.062;9.930;2024-03-23T10:02:02;3.65;;;1.88;;
72388;SDS011;60566;48.062;9.930;2024-03-23T10:04:37;4.18;;;1.92;;
72388;SDS011;60566;48.062;9.930;2024-03-23T10:07:10;4.25;;;2.00;;
72388;SDS011;60566;48.062;9.930;2024-03-23T10:09:36;4.18;;;1.80;;
72388;SDS011;60566;48.062;9.930;2024-03-23T10:12:07;3.58;;;2.05;;
72388;SDS011;60566;48.062;9.930;2024-03-23T10:14:34;2.50;;;1.50;;
72388;SDS011;60566;48.062;9.930;2024-03-23T10:17:08;3.85;;;2.28;;
72388;SDS011;60566;48.062;9.930;2024-03-23T10:19:40;3.42;;;2.17;;
72388;SDS011;60566;48.062;9.930;2024-03-23T10:24:33;7.18;;;2.35;;
72388;SDS011;60566;48.062;9.930;2024-03-23T10:26:59;3.40;;;2.10;;
72388;SDS011;60566;48.062;9.930;2024-03-23T10:29:25;5.93;;;1.90;;
72388;SDS011;60566;48.062;9.930;2024-03-23T10:31:52;3.03;;;1.70;;
72388;SDS011;60566;48.062;9.930;2024-03-23T10:34:24;3.28;;;1.83;;
72388;SDS011;60566;48.062;9.930;2024-03-23T10:36:51;4.00;;;1.83;;
72388;SDS011;60566;48.062;9.930;2024-03-23T10:39:18;4.82;;;2.10;;
72388;SDS011;60566;48.062;9.930;2024-03-23T10:41:47;3.72;;;2.05;;
72388;SDS011;60566;48.062;9.930;2024-03-23T10:46:41;5.82;;;2.58;;
72388;SDS011;60566;48.062;9.930;2024-03-23T10:49:06;4.88;;;2.17;;
72388;SDS011;60566;48.062;9.930;2024-03-23T10:51:32;4.18;;;2.15;;
72388;SDS011;60566;48.062;9.930;2024-03-23T10:53:59;5.88;;;2.70;;
72388;SDS011;60566;48.062;9.930;2024-03-23T10:56:28;4.18;;;1.98;;
72388;SDS011;60566;48.062;9.930;2024-03-23T10:58:59;4.68;;;2.20;;
72388;SDS011;60566;48.062;9.930;2024-03-23T11:01:26;4.57;;;2.45;;
72388;SDS011;60566;48.062;9.930;2024-03-23T11:03:52;4.60;;;1.73;;
72388;SDS011;60566;48.062;9.930;2024-03-23T11:06:33;3.88;;;2.20;;
72388;SDS011;60566;48.062;9.930;2024-03-23T11:09:01;3.42;;;1.58;;
72388;SDS011;60566;48.062;9.930;2024-03-23T11:11:26;3.28;;;1.75;;
72388;SDS011;60566;48.062;9.930;2024-03-23T11:13:53;5.00;;;2.30;;
72388;SDS011;60566;48.062;9.930;2024-03-23T11:16:21;5.47;;;2.30;;
72388;SDS011;60566;48.062;9.930;2024-03-23T11:18:49;5.53;;;2.60;;
72388;SDS011;60566;48.062;9.930;2024-03-23T11:24:15;7.95;;;2.72;;
72388;SDS011;60566;48.062;9.930;2024-03-23T11:26:40;8.20;;;3.28;;
72388;SDS011;60566;48.062;9.930;2024-03-23T11:29:09;5.22;;;2.65;;
72388;SDS011;60566;48.062;9.930;2024-03-23T11:31:36;7.95;;;2.47;;
72388;SDS011;60566;48.062;9.930;2024-03-23T11:34:02;6.35;;;2.47;;
72388;SDS011;60566;48.062;9.930;2024-03-23T11:36:29;5.20;;;2.53;;
72388;SDS011;60566;48.062;9.930;2024-03-23T11:38:54;4.82;;;2.30;;
72388;SDS011;60566;48.062;9.930;2024-03-23T11:41:21;7.72;;;2.70;;
72388;SDS011;60566;48.062;9.930;2024-03-23T11:43:47;5.57;;;2.80;;
72388;SDS011;60566;48.062;9.930;2024-03-23T11:46:18;5.97;;;2.30;;
72388;SDS011;60566;48.062;9.930;2024-03-23T11:48:49;8.13;;;2.47;;
72388;SDS011;60566;48.062;9.930;2024-03-23T11:51:15;4.38;;;2.33;;
72388;SDS011;60566;48.062;9.930;2024-03-23T11:53:40;5.88;;;2.50;;
72388;SDS011;60566;48.062;9.930;2024-03-23T11:56:06;6.45;;;2.95;;
72388;SDS011;60566;48.062;9.930;2024-03-23T11:58:34;6.45;;;2.70;;
72388;SDS011;60566;48.062;9.930;2024-03-23T12:01:00;6.55;;;2.67;;
72388;SDS011;60566;48.062;9.930;2024-03-23T12:03:30;6.53;;;2.80;;
72388;SDS011;60566;48.062;9.930;2024-03-23T12:05:58;7.22;;;2.67;;
72388;SDS011;60566;48.062;9.930;2024-03-23T12:08:28;6.65;;;2.50;;
72388;SDS011;60566;48.062;9.930;2024-03-23T12:11:05;7.45;;;2.58;;
72388;SDS011;60566;48.062;9.930;2024-03-23T12:13:31;6.50;;;2.75;;
72388;SDS011;60566;48.062;9.930;2024-03-23T12:16:08;6.20;;;2.58;;
72388;SDS011;60566;48.062;9.930;2024-03-23T12:18:34;7.35;;;2.80;;
72388;SDS011;60566;48.062;9.930;2024-03-23T12:21:00;5.68;;;2.58;;
72388;SDS011;60566;48.062;9.930;2024-03-23T12:23:25;7.85;;;2.42;;
72388;SDS011;60566;48.062;9.930;2024-03-23T12:25:51;7.35;;;2.75;;
72388;SDS011;60566;48.062;9.930;2024-03-23T12:28:17;6.20;;;2.40;;
72388;SDS011;60566;48.062;9.930;2024-03-23T12:30:42;7.80;;;2.90;;
72388;SDS011;60566;48.062;9.930;2024-03-23T12:33:09;5.38;;;2.20;;
72388;SDS011;60566;48.062;9.930;2024-03-23T12:35:35;5.45;;;2.45;;
72388;SDS011;60566;48.062;9.930;2024-03-23T12:38:01;5.78;;;2.58;;
72388;SDS011;60566;48.062;9.930;2024-03-23T12:40:26;7.53;;;2.90;;
72388;SDS011;60566;48.062;9.930;2024-03-23T12:42:53;4.93;;;2.13;;
72388;SDS011;60566;48.062;9.930;2024-03-23T12:45:19;6.25;;;2.20;;
72388;SDS011;60566;48.062;9.930;2024-03-23T12:47:44;6.75;;;2.20;;
72388;SDS011;60566;48.062;9.930;2024-03-23T12:50:11;5.63;;;2.00;;
72388;SDS011;60566;48.062;9.930;2024-03-23T12:52:37;5.97;;;2.40;;
72388;SDS011;60566;48.062;9.930;2024-03-23T12:55:03;6.30;;;2.17;;
72388;SDS011;60566;48.062;9.930;2024-03-23T12:57:30;3.95;;;1.98;;
72388;SDS011;60566;48.062;9.930;2024-03-23T12:59:56;4.63;;;1.67;;
72388;SDS011;60566;48.062;9.930;2024-03-23T13:02:22;5.05;;;2.03;;
72388;SDS011;60566;48.062;9.930;2024-03-23T13:04:49;3.67;;;2.17;;
72388;SDS011;60566;48.062;9.930;2024-03-23T13:07:16;3.08;;;1.83;;
72388;SDS011;60566;48.062;9.930;2024-03-23T13:09:42;5.78;;;1.98;;
72388;SDS011;60566;48.062;9.930;2024-03-23T13:12:08;4.07;;;2.10;;
72388;SDS011;60566;48.062;9.930;2024-03-23T13:14:34;4.43;;;2.22;;
72388;SDS011;60566;48.062;9.930;2024-03-23T13:17:00;3.00;;;1.70;;
72388;SDS011;60566;48.062;9.930;2024-03-23T13:19:25;4.03;;;1.70;;
72388;SDS011;60566;48.062;9.930;2024-03-23T13:21:52;3.65;;;1.92;;
72388;SDS011;60566;48.062;9.930;2024-03-23T13:24:22;4.53;;;2.20;;
72388;SDS011;60566;48.062;9.930;2024-03-23T13:26:49;2.85;;;1.77;;
72388;SDS011;60566;48.062;9.930;2024-03-23T13:29:15;5.30;;;2.03;;
72388;SDS011;60566;48.062;9.930;2024-03-23T13:31:40;2.13;;;1.58;;
72388;SDS011;60566;48.062;9.930;2024-03-23T13:34:06;5.72;;;1.70;;
72388;SDS011;60566;48.062;9.930;2024-03-23T13:36:32;2.97;;;1.48;;
72388;SDS011;60566;48.062;9.930;2024-03-23T13:38:57;3.80;;;1.50;;
72388;SDS011;60566;48.062;9.930;2024-03-23T13:41:25;4.25;;;2.38;;
72388;SDS011;60566;48.062;9.930;2024-03-23T13:43:51;5.72;;;1.95;;
72388;SDS011;60566;48.062;9.930;2024-03-23T13:46:16;3.15;;;1.98;;
72388;SDS011;60566;48.062;9.930;2024-03-23T13:48:42;3.50;;;1.90;;
72388;SDS011;60566;48.062;9.930;2024-03-23T13:51:08;4.05;;;2.28;;
72388;SDS011;60566;48.062;9.930;2024-03-23T13:53:33;5.03;;;1.92;;
72388;SDS011;60566;48.062;9.930;2024-03-23T13:55:59;5.82;;;2.08;;
72388;SDS011;60566;48.062;9.930;2024-03-23T13:58:26;4.88;;;1.98;;
72388;SDS011;60566;48.062;9.930;2024-03-23T14:00:52;4.97;;;1.95;;
72388;SDS011;60566;48.062;9.930;2024-03-23T14:03:17;4.93;;;2.17;;
72388;SDS011;60566;48.062;9.930;2024-03-23T14:05:43;7.30;;;2.05;;
72388;SDS011;60566;48.062;9.930;2024-03-23T14:10:40;9.77;;;2.35;;
72388;SDS011;60566;48.062;9.930;2024-03-23T14:13:06;5.80;;;1.95;;
72388;SDS011;60566;48.062;9.930;2024-03-23T14:15:33;5.35;;;2.30;;
72388;SDS011;60566;48.062;9.930;2024-03-23T14:17:59;4.22;;;1.95;;
72388;SDS011;60566;48.062;9.930;2024-03-23T14:20:24;6.07;;;1.83;;
72388;SDS011;60566;48.062;9.930;2024-03-23T14:22:51;4.57;;;2.05;;
72388;SDS011;60566;48.062;9.930;2024-03-23T14:25:17;2.97;;;1.50;;
72388;SDS011;60566;48.062;9.930;2024-03-23T14:27:43;2.85;;;2.03;;
72388;SDS011;60566;48.062;9.930;2024-03-23T14:30:09;5.32;;;1.50;;
72388;SDS011;60566;48.062;9.930;2024-03-23T14:32:37;6.85;;;1.60;;
72388;SDS011;60566;48.062;9.930;2024-03-23T14:35:02;3.95;;;2.45;;
72388;SDS011;60566;48.062;9.930;2024-03-23T14:37:29;5.90;;;1.90;;
72388;SDS011;60566;48.062;9.930;2024-03-23T14:39:55;4.57;;;2.20;;
72388;SDS011;60566;48.062;9.930;2024-03-23T14:42:21;4.88;;;1.77;;
72388;SDS011;60566;48.062;9.930;2024-03-23T14:44:46;4.38;;;1.42;;
72388;SDS011;60566;48.062;9.930;2024-03-23T14:47:12;9.20;;;1.63;;
72388;SDS011;60566;48.062;9.930;2024-03-23T14:49:39;5.30;;;1.70;;
72388;SDS011;60566;48.062;9.930;2024-03-23T14:52:05;4.22;;;1.42;;
72388;SDS011;60566;48.062;9.930;2024-03-23T14:54:30;3.88;;;1.45;;
72388;SDS011;60566;48.062;9.930;2024-03-23T14:56:56;5.03;;;1.50;;
72388;SDS011;60566;48.062;9.930;2024-03-23T14:59:23;4.32;;;1.42;;
72388;SDS011;60566;48.062;9.930;2024-03-23T15:01:49;2.53;;;1.63;;
72388;SDS011;60566;48.062;9.930;2024-03-23T15:04:14;4.72;;;1.83;;
72388;SDS011;60566;48.062;9.930;2024-03-23T15:06:41;5.03;;;1.80;;
72388;SDS011;60566;48.062;9.930;2024-03-23T15:09:07;6.32;;;1.77;;
72388;SDS011;60566;48.062;9.930;2024-03-23T15:11:36;4.35;;;1.65;;
72388;SDS011;60566;48.062;9.930;2024-03-23T15:14:02;5.57;;;1.80;;
72388;SDS011;60566;48.062;9.930;2024-03-23T15:16:27;3.90;;;1.60;;
72388;SDS011;60566;48.062;9.930;2024-03-23T15:18:53;4.15;;;1.40;;
72388;SDS011;60566;48.062;9.930;2024-03-23T15:21:18;3.42;;;0.93;;
72388;SDS011;60566;48.062;9.930;2024-03-23T15:23:48;3.72;;;1.65;;
72388;SDS011;60566;48.062;9.930;2024-03-23T15:26:14;5.03;;;1.60;;
72388;SDS011;60566;48.062;9.930;2024-03-23T15:28:41;3.60;;;1.27;;
72388;SDS011;60566;48.062;9.930;2024-03-23T15:31:08;2.97;;;1.30;;
72388;SDS011;60566;48.062;9.930;2024-03-23T15:33:34;5.85;;;1.50;;
72388;SDS011;60566;48.062;9.930;2024-03-23T15:36:00;7.57;;;1.65;;
72388;SDS011;60566;48.062;9.930;2024-03-23T15:38:26;7.85;;;1.70;;
72388;SDS011;60566;48.062;9.930;2024-03-23T15:40:53;5.60;;;2.45;;
72388;SDS011;60566;48.062;9.930;2024-03-23T15:43:19;3.08;;;1.30;;
72388;SDS011;60566;48.062;9.930;2024-03-23T15:45:47;2.67;;;1.42;;
72388;SDS011;60566;48.062;9.930;2024-03-23T15:48:19;2.08;;;1.20;;
72388;SDS011;60566;48.062;9.930;2024-03-23T15:50:49;2.90;;;1.00;;